Latest Weather Observations for North West 10 Beacon

IDQ60901

Issued at 10:01 am EST Wednesday 29 May 2024 (issued every 10 minutes, with the page automatically refreshed every 10 minutes)

About weather observations | Map of Brisbane area stations | Latest observations for Brisbane area | Other Formats
Station Details ID: 200896 Name: NORTH WEST 10 BEACON Lat: -27.00 Lon: 153.24 Height: 7.0 m
Data from the previous 72 hours. | See also: Recent months for locations in Queensland
Date/Time
EST
Temp
°C
App
Temp
°C
Dew
Point
°C
Rel
Hum
%
Delta-T
°C
Wind Press
QNH
hPa
Press
MSL
hPa
Rain since
9am
mm
Dir  Spd
km/h
Gust
km/h
Spd
kts
Gust
kts
29/09:30am - - - - - S 24 28 13 15 - - -
29/09:00am - - - - - S 26 30 14 16 - - -
29/08:30am - - - - - S 26 30 14 16 - - -
29/08:00am - - - - - S 22 26 12 14 - - -
29/07:30am - - - - - S 24 28 13 15 - - -
29/07:00am - - - - - S 22 28 12 15 - - -
29/06:30am - - - - - S 22 26 12 14 - - -
29/06:00am - - - - - S 20 26 11 14 - - -
29/05:30am - - - - - SSE 19 24 10 13 - - -
29/05:00am - - - - - S 24 28 13 15 - - -
29/04:30am - - - - - S 20 24 11 13 - - -
29/04:00am - - - - - ESE 15 19 8 10 - - -
29/03:30am - - - - - ESE 24 30 13 16 - - -
29/03:00am - - - - - S 19 22 10 12 - - -
29/02:30am - - - - - S 20 24 11 13 - - -
29/02:00am - - - - - S 20 24 11 13 - - -
29/01:30am - - - - - S 20 22 11 12 - - -
29/01:00am - - - - - S 24 28 13 15 - - -
29/12:30am - - - - - S 19 24 10 13 - - -
29/12:00am - - - - - S 15 19 8 10 - - -
 
Date/Time
EST
Temp
°C
App
Temp
°C
Dew
Point
°C
Rel
Hum
%
Delta-T
°C
Wind Press
QNH
hPa
Press
MSL
hPa
Rain since
9am
mm
Dir  Spd
km/h
Gust
km/h
Spd
kts
Gust
kts
28/11:30pm - - - - - SSE 15 20 8 11 - - -
28/11:00pm - - - - - SSE 19 24 10 13 - - -
28/10:30pm - - - - - SE 20 28 11 15 - - -
28/10:00pm - - - - - SSE 22 28 12 15 - - -
28/09:30pm - - - - - SSE 22 26 12 14 - - -
28/09:00pm - - - - - SSE 24 30 13 16 - - -
28/08:30pm - - - - - SSE 24 30 13 16 - - -
28/08:00pm - - - - - SSE 19 22 10 12 - - -
28/07:30pm - - - - - SSE 11 15 6 8 - - -
28/07:00pm - - - - - SE 9 11 5 6 - - -
28/06:30pm - - - - - SSE 9 13 5 7 - - -
28/06:00pm - - - - - SSE 9 11 5 6 - - -
28/05:30pm - - - - - SSE 13 13 7 7 - - -
28/05:00pm - - - - - SSE 15 17 8 9 - - -
28/04:30pm - - - - - SSE 15 17 8 9 - - -
28/04:00pm - - - - - SSE 19 20 10 11 - - -
28/03:30pm - - - - - S 17 20 9 11 - - -
28/03:00pm - - - - - S 17 20 9 11 - - -
28/02:30pm - - - - - S 20 24 11 13 - - -
28/02:00pm - - - - - S 22 24 12 13 - - -
28/01:30pm - - - - - S 20 22 11 12 - - -
28/01:00pm - - - - - S 22 26 12 14 - - -
28/12:30pm - - - - - S 24 28 13 15 - - -
28/12:00pm - - - - - SSW 19 22 10 12 - - -
28/11:30am - - - - - SSW 19 20 10 11 - - -
28/11:00am - - - - - SW 19 20 10 11 - - -
28/10:30am - - - - - S 19 22 10 12 - - -
28/10:00am - - - - - SSW 19 20 10 11 - - -
28/09:30am - - - - - SSW 17 20 9 11 - - -
28/09:17am - - - - - SSE 22 33 12 18 - - -
28/09:00am - - - - - SE 37 44 20 24 - - -
28/08:52am - - - - - SE 37 43 20 23 - - -
28/08:30am - - - - - S 24 26 13 14 - - -
28/08:00am - - - - - S 20 26 11 14 - - -
28/07:30am - - - - - S 24 28 13 15 - - -
28/07:00am - - - - - S 19 22 10 12 - - -
28/06:30am - - - - - SSE 20 22 11 12 - - -
28/06:00am - - - - - S 24 28 13 15 - - -
28/05:30am - - - - - S 26 32 14 17 - - -
28/05:00am - - - - - S 20 24 11 13 - - -
28/04:30am - - - - - S 17 22 9 12 - - -
28/04:00am - - - - - S 17 22 9 12 - - -
28/03:30am - - - - - S 17 20 9 11 - - -
28/03:00am - - - - - SSW 15 17 8 9 - - -
28/02:30am - - - - - S 15 19 8 10 - - -
28/02:00am - - - - - S 15 17 8 9 - - -
28/01:30am - - - - - S 13 15 7 8 - - -
28/01:00am - - - - - S 13 15 7 8 - - -
28/12:30am - - - - - SSE 9 13 5 7 - - -
28/12:00am - - - - - S 15 19 8 10 - - -
 
Date/Time
EST
Temp
°C
App
Temp
°C
Dew
Point
°C
Rel
Hum
%
Delta-T
°C
Wind Press
QNH
hPa
Press
MSL
hPa
Rain since
9am
mm
Dir  Spd
km/h
Gust
km/h
Spd
kts
Gust
kts
27/11:30pm - - - - - SSW 17 20 9 11 - - -
27/11:00pm - - - - - SSW 15 17 8 9 - - -
27/10:30pm - - - - - SSW 15 17 8 9 - - -
27/10:00pm - - - - - S 9 11 5 6 - - -
27/09:30pm - - - - - SE 6 7 3 4 - - -
27/09:00pm - - - - - SE 7 9 4 5 - - -
27/08:30pm - - - - - SE 9 11 5 6 - - -
27/08:00pm - - - - - SE 11 13 6 7 - - -
27/07:30pm - - - - - ESE 9 11 5 6 - - -
27/07:00pm - - - - - ESE 11 11 6 6 - - -
27/06:30pm - - - - - ESE 11 13 6 7 - - -
27/06:00pm - - - - - ESE 11 13 6 7 - - -
27/05:30pm - - - - - ESE 13 15 7 8 - - -
27/05:00pm - - - - - ESE 11 13 6 7 - - -
27/04:30pm - - - - - SE 9 15 5 8 - - -
27/04:00pm - - - - - ESE 13 15 7 8 - - -
27/03:30pm - - - - - SE 11 13 6 7 - - -
27/03:00pm - - - - - SE 11 13 6 7 - - -
27/02:30pm - - - - - SSE 9 11 5 6 - - -
27/02:00pm - - - - - S 13 15 7 8 - - -
27/01:30pm - - - - - S 15 15 8 8 - - -
27/01:00pm - - - - - S 17 19 9 10 - - -
27/12:30pm - - - - - S 17 19 9 10 - - -
27/12:00pm - - - - - S 17 20 9 11 - - -
27/11:30am - - - - - S 19 22 10 12 - - -
27/11:00am - - - - - S 19 20 10 11 - - -
27/10:30am - - - - - S 19 20 10 11 - - -
27/10:00am - - - - - S 20 24 11 13 - - -
27/09:30am - - - - - SSW 20 24 11 13 - - -
27/09:00am - - - - - SSW 20 24 11 13 - - -
27/08:30am - - - - - SSW 15 19 8 10 - - -
27/08:00am - - - - - S 13 15 7 8 - - -
27/07:30am - - - - - SSW 13 15 7 8 - - -
27/07:00am - - - - - SSW 13 15 7 8 - - -
27/06:30am - - - - - SSW 11 15 6 8 - - -
27/06:00am - - - - - SSW 15 19 8 10 - - -
27/05:30am - - - - - S 17 20 9 11 - - -
27/05:00am - - - - - S 17 20 9 11 - - -
27/04:30am - - - - - S 15 19 8 10 - - -
27/04:00am - - - - - SSW 13 17 7 9 - - -
27/03:30am - - - - - S 17 20 9 11 - - -
27/03:00am - - - - - S 17 20 9 11 - - -
27/02:30am - - - - - S 11 13 6 7 - - -
27/02:00am - - - - - SE 6 7 3 4 - - -
27/01:30am - - - - - SSE 6 9 3 5 - - -
27/01:00am - - - - - SSW 15 17 8 9 - - -
27/12:30am - - - - - SSW 17 19 9 10 - - -
27/12:00am - - - - - SSW 19 20 10 11 - - -
 
Date/Time
EST
Temp
°C
App
Temp
°C
Dew
Point
°C
Rel
Hum
%
Delta-T
°C
Wind Press
QNH
hPa
Press
MSL
hPa
Rain since
9am
mm
Dir  Spd
km/h
Gust
km/h
Spd
kts
Gust
kts
26/11:30pm - - - - - SSW 19 20 10 11 - - -
26/11:00pm - - - - - SSW 19 20 10 11 - - -
26/10:30pm - - - - - S 11 13 6 7 - - -
26/10:00pm - - - - - S 11 13 6 7 - - -
26/09:30pm - - - - - SSE 9 11 5 6 - - -
26/09:00pm - - - - - SE 9 11 5 6 - - -
26/08:30pm - - - - - ESE 9 11 5 6 - - -
26/08:00pm - - - - - ESE 9 11 5 6 - - -
26/07:30pm - - - - - ESE 7 9 4 5 - - -
26/07:00pm - - - - - ESE 9 11 5 6 - - -
26/06:30pm - - - - - ESE 13 15 7 8 - - -
26/06:00pm - - - - - ESE 13 15 7 8 - - -
26/05:30pm - - - - - SE 11 13 6 7 - - -
26/05:00pm - - - - - SE 9 11 5 6 - - -
26/04:30pm - - - - - SE 7 9 4 5 - - -
26/04:00pm - - - - - SE 11 13 6 7 - - -
26/03:30pm - - - - - SE 11 13 6 7 - - -
26/03:00pm - - - - - SSE 15 17 8 9 - - -
26/02:30pm - - - - - SSE 15 17 8 9 - - -
26/02:00pm - - - - - SSE 13 15 7 8 - - -
26/01:30pm - - - - - S 13 15 7 8 - - -
26/01:00pm - - - - - S 17 19 9 10 - - -
26/12:30pm - - - - - S 20 22 11 12 - - -
26/12:00pm - - - - - SSW 22 24 12 13 - - -
26/11:30am - - - - - SSW 20 24 11 13 - - -
26/11:00am - - - - - SSW 20 24 11 13 - - -
26/10:30am - - - - - SSW 19 22 10 12 - - -

Latest Capital City Observations: Canberra | Sydney | Melbourne | Brisbane | Adelaide | Perth | Hobart | Darwin

Other formats

Comma delimited format used in spreadsheet applications
http://www.bom.gov.au/fwo/IDQ60901/IDQ60901.99496.axf

JavaScript Object Notation format (JSON) in row-major order
http://www.bom.gov.au/fwo/IDQ60901/IDQ60901.99496.json

Data quality

Most of these data are generated automatically and are frequently updated. Quality checks on data are not normally performed. It is possible for incorrect values to appear. Refer to information at About Latest Weather Observations and please check the disclaimer before using these data.